Bodfish, CA (93205)

1:43 AM PDT on September 17, 2014 (GMT -0700)
HADS ISABELLA WEATHER STATION NEAR LA CA US USARMY-COE | Change Station
CLOSE
Current Station
Personal Weather Station
Location: Lake Isabella, CA
Elevation: 2680 ft
Nearby Weather Stations

Elev 2680 ft 35.65 °N, 118.48 °W | Updated 58 minutes ago

Clear
Clear
77 °F
Feels Like 78 °F
N
4
Wind Variable Wind from SSW
Gusts 0.0 mph

Today
High -- | Low -- °F
--% Chance of Precip.
Yesterday
High -- | Low -- °F
Precip. -- in
6:38 AM 6:57 PM
Last Quarter, 38% visible
Pressure 30.01 in
Visibility 10.0 miles
Clouds Clear
Heat Index 78 °F
Dew Point 45 °F
Humidity 33%
Rainfall 0.01 in
Snow Depth Not available.
UV 0 out of 12
Pollen 7.60 out of 12
Ozone Good
PM2.5 Moderate
Flu Activity Not available.
METAR KTSP 170835Z AUTO 00000KT 10SM CLR 16/08 A3001 RMK AO2

More Conditions Fewer Conditions

Pressure 30.01 in
Visibility 10.0 miles
Clouds Clear
Heat Index 78 °F
Dew Point 45 °F
Humidity 33%
Rainfall 0.01 in
Snow Depth Not available.
UV 0 out of 12
Pollen 7.60 out of 12
Ozone Good
PM2.5 Moderate
Flu Activity Not available.
METAR KTSP 170835Z AUTO 00000KT 10SM CLR 16/08 A3001 RMK AO2

More Conditions Fewer Conditions

10-Day Weather Forecast

Almanac

Astronomy

Sep. 17, 2014 Rise Set
Actual Time 6:38 AM PDT 6:57 PM PDT
Civil Twilight 6:12 AM PDT 7:23 PM PDT
Nautical Twilight 5:42 AM PDT 7:53 PM PDT
Astronomical Twilight 5:12 AM PDT 8:23 PM PDT
Moon 12:50 AM PDT 3:02 PM PDT
Length of Visible Light 13h 10m
Length of Day
12h 19m
Tomorrow will be 2m 13s shorter.
Last Quarter, 38% of the Moon is Illuminated
Today
Last Quarter
Sep 24
New
Oct 1
First Quarter
Oct 8
Full
Oct 15
Last Quarter

Today's Extremes

State Highs State Lows

Community

WunderPhotos

Upload Photos

1,753,990 photos uploaded!

Nearby

Air Quality

  Air Quality AQ Index Pollutant
Yesterday Unhealthy for Sensitive Groups
OZONE
Yesterday Good
PM2.5
Current Moderate
PM2.5
Current Good
OZONE
Tuesday Unhealthy for Sensitive Groups
OZONE
Wednesday Moderate
OZONE
Thursday Moderate
OZONE
Friday Moderate
OZONE
Saturday Moderate
OZONE
Sunday Moderate
OZONE

Snow Depth

Station Depth Elevation
Adin Mountain 1 in 6200 ft
CSS Lab 2 in 6900 ft
Summit Meadow 0 in 9122 ft
Spratt Creek 0 in 6200 ft
Rubicon #2 0 in 7500 ft

Earthquake Activity

City Distance Mag. Time & Date
Inyokern, California 35 miles 3.2 5:56 PM PDT
2014-09-14
San Jacinto, California 150 miles 3.0 3:16 PM PDT
2014-09-14
Minimum magnitude displayed is 2.5.

Coastal Water Temperatures

Place Temperature
No Stations Reporting

Nearby Weather Stations